DLH43G EDDF-LFBD
Flight info
| Callsign | DLH43G |
|---|---|
| Flight time | 1h 26m |
| Altitude | 37000 |
| Route | ANEKI2L/18 ANEKI DCT SAV DCT BERUG V32 EPL G21 LMG |
| Aircraft | A319/M-SDE3FGHIRWY/LB1 |
Departure
| Time | 2026-05-05 09:14 |
|---|---|
| Airport | Frankfurt Main Airport (EDDF) |
Arrival
| Time | 2026-05-05 10:40 |
|---|---|
| Airport | Bordeaux–Mérignac Airport (LFBD) |
| Time | Latitude | Longitude | Altitude | Speed | Heading |
|---|---|---|---|---|---|
| 2026-05-05 08:34 | 50.04466 | 8.56485 | 360 ft | 0 kts | 159° |
| 2026-05-05 09:03 | 50.04489 | 8.56471 | 363 ft | 4 kts | 160° |
| 2026-05-05 09:03 | 50.04515 | 8.56458 | 362 ft | 4 kts | 161° |
| 2026-05-05 09:03 | 50.04534 | 8.56447 | 360 ft | 4 kts | 170° |
| 2026-05-05 09:03 | 50.04560 | 8.56448 | 363 ft | 4 kts | 199° |
| 2026-05-05 09:04 | 50.04569 | 8.56453 | 362 ft | 0 kts | 204° |
| 2026-05-05 09:06 | 50.04565 | 8.56450 | 363 ft | 2 kts | 204° |
| 2026-05-05 09:06 | 50.04540 | 8.56431 | 360 ft | 6 kts | 210° |
| 2026-05-05 09:06 | 50.04511 | 8.56362 | 359 ft | 9 kts | 249° |
| 2026-05-05 09:07 | 50.04485 | 8.56254 | 364 ft | 12 kts | 249° |
| 2026-05-05 09:07 | 50.04453 | 8.56122 | 359 ft | 11 kts | 250° |
| 2026-05-05 09:07 | 50.04402 | 8.56031 | 358 ft | 12 kts | 185° |
| 2026-05-05 09:07 | 50.04320 | 8.56069 | 355 ft | 11 kts | 161° |
| 2026-05-05 09:08 | 50.04255 | 8.56005 | 356 ft | 14 kts | 249° |
| 2026-05-05 09:08 | 50.04219 | 8.55853 | 358 ft | 16 kts | 249° |
| 2026-05-05 09:08 | 50.04176 | 8.55674 | 357 ft | 19 kts | 250° |
| 2026-05-05 09:08 | 50.04127 | 8.55468 | 351 ft | 21 kts | 249° |
| 2026-05-05 09:09 | 50.04073 | 8.55245 | 356 ft | 22 kts | 249° |
| 2026-05-05 09:09 | 50.04017 | 8.55009 | 356 ft | 24 kts | 249° |
| 2026-05-05 09:09 | 50.03956 | 8.54757 | 352 ft | 26 kts | 249° |
| 2026-05-05 09:09 | 50.03894 | 8.54496 | 353 ft | 22 kts | 250° |
| 2026-05-05 09:10 | 50.03839 | 8.54323 | 353 ft | 18 kts | 234° |
| 2026-05-05 09:10 | 50.03781 | 8.54145 | 351 ft | 19 kts | 250° |
| 2026-05-05 09:10 | 50.03733 | 8.53944 | 350 ft | 20 kts | 249° |
| 2026-05-05 09:10 | 50.03682 | 8.53731 | 342 ft | 22 kts | 249° |
| 2026-05-05 09:11 | 50.03625 | 8.53507 | 340 ft | 23 kts | 249° |
| 2026-05-05 09:11 | 50.03569 | 8.53270 | 339 ft | 24 kts | 250° |
| 2026-05-05 09:11 | 50.03509 | 8.53022 | 337 ft | 25 kts | 249° |
| 2026-05-05 09:11 | 50.03448 | 8.52788 | 333 ft | 14 kts | 247° |
| 2026-05-05 09:12 | 50.03411 | 8.52640 | 334 ft | 11 kts | 249° |
| 2026-05-05 09:12 | 50.03347 | 8.52594 | 336 ft | 11 kts | 180° |
| 2026-05-05 09:12 | 50.03334 | 8.52594 | 336 ft | 0 kts | 180° |
| 2026-05-05 09:13 | 50.03294 | 8.52594 | 333 ft | 23 kts | 180° |
| 2026-05-05 09:13 | 50.02852 | 8.52600 | 336 ft | 100 kts | 179° |
| 2026-05-05 09:14 | 50.01939 | 8.52608 | 334 ft | 159 kts | 180° |
| 2026-05-05 09:14 | 50.00773 | 8.52614 | 825 ft | 167 kts | 180° |
| 2026-05-05 09:14 | 49.99612 | 8.52642 | 1540 ft | 167 kts | 178° |
| 2026-05-05 09:14 | 49.98402 | 8.52718 | 2067 ft | 184 kts | 177° |
| 2026-05-05 09:15 | 49.97066 | 8.52823 | 2527 ft | 201 kts | 176° |
| 2026-05-05 09:15 | 49.95595 | 8.52957 | 2886 ft | 224 kts | 176° |
| 2026-05-05 09:15 | 49.94016 | 8.53099 | 3680 ft | 229 kts | 177° |
| 2026-05-05 09:15 | 49.92425 | 8.53210 | 4644 ft | 229 kts | 178° |
| 2026-05-05 09:16 | 49.90825 | 8.53313 | 5575 ft | 231 kts | 178° |
| 2026-05-05 09:16 | 49.89234 | 8.53412 | 6499 ft | 232 kts | 178° |
| 2026-05-05 09:16 | 49.87610 | 8.53515 | 7373 ft | 235 kts | 178° |
| 2026-05-05 09:16 | 49.85964 | 8.53621 | 8217 ft | 239 kts | 178° |
| 2026-05-05 09:17 | 49.84291 | 8.53731 | 9075 ft | 243 kts | 178° |
| 2026-05-05 09:17 | 49.82585 | 8.53845 | 9899 ft | 247 kts | 178° |
| 2026-05-05 09:17 | 49.80852 | 8.53962 | 10669 ft | 251 kts | 178° |
| 2026-05-05 09:17 | 49.79100 | 8.54081 | 11477 ft | 253 kts | 178° |
| 2026-05-05 09:18 | 49.77325 | 8.54049 | 12203 ft | 261 kts | 186° |
| 2026-05-05 09:18 | 49.75438 | 8.53799 | 12513 ft | 284 kts | 186° |
| 2026-05-05 09:18 | 49.73387 | 8.53518 | 12774 ft | 308 kts | 186° |
| 2026-05-05 09:18 | 49.71183 | 8.53220 | 13133 ft | 325 kts | 186° |
| 2026-05-05 09:19 | 49.68907 | 8.52919 | 13809 ft | 332 kts | 186° |
| 2026-05-05 09:19 | 49.66594 | 8.52618 | 14503 ft | 335 kts | 186° |
| 2026-05-05 09:19 | 49.64259 | 8.52315 | 15227 ft | 337 kts | 186° |
| 2026-05-05 09:19 | 49.61916 | 8.52008 | 15955 ft | 339 kts | 186° |
| 2026-05-05 09:20 | 49.60356 | 8.51802 | 16426 ft | 341 kts | 186° |
| 2026-05-05 09:20 | 49.57983 | 8.51489 | 17130 ft | 344 kts | 185° |
| 2026-05-05 09:20 | 49.55590 | 8.51172 | 17825 ft | 346 kts | 185° |
| 2026-05-05 09:20 | 49.53178 | 8.50851 | 18465 ft | 349 kts | 185° |
| 2026-05-05 09:21 | 49.50745 | 8.50530 | 19035 ft | 353 kts | 185° |
| 2026-05-05 09:21 | 49.47479 | 8.50099 | 19778 ft | 358 kts | 185° |
| 2026-05-05 09:21 | 49.45797 | 8.49878 | 20156 ft | 361 kts | 185° |
| 2026-05-05 09:21 | 49.43278 | 8.49551 | 20710 ft | 365 kts | 185° |
| 2026-05-05 09:22 | 49.40733 | 8.49220 | 21258 ft | 369 kts | 185° |
| 2026-05-05 09:22 | 49.38157 | 8.48882 | 21819 ft | 374 kts | 185° |
| 2026-05-05 09:22 | 49.35565 | 8.48385 | 22352 ft | 378 kts | 193° |
| 2026-05-05 09:22 | 49.33061 | 8.47111 | 22878 ft | 382 kts | 205° |
| 2026-05-05 09:23 | 49.30774 | 8.45007 | 23405 ft | 386 kts | 217° |
| 2026-05-05 09:23 | 49.28824 | 8.42162 | 23840 ft | 391 kts | 229° |
| 2026-05-05 09:23 | 49.27167 | 8.38841 | 24317 ft | 393 kts | 232° |
| 2026-05-05 09:23 | 49.25513 | 8.35493 | 24820 ft | 394 kts | 232° |
| 2026-05-05 09:24 | 49.23851 | 8.32153 | 25314 ft | 396 kts | 231° |
| 2026-05-05 09:24 | 49.22177 | 8.28799 | 25797 ft | 397 kts | 231° |
| 2026-05-05 09:24 | 49.20501 | 8.25446 | 26317 ft | 397 kts | 231° |
| 2026-05-05 09:24 | 49.18826 | 8.22098 | 26803 ft | 397 kts | 231° |
| 2026-05-05 09:25 | 49.17165 | 8.18781 | 27262 ft | 399 kts | 231° |
| 2026-05-05 09:25 | 49.15478 | 8.15416 | 27729 ft | 400 kts | 230° |
| 2026-05-05 09:25 | 49.13781 | 8.12035 | 28204 ft | 402 kts | 230° |
| 2026-05-05 09:25 | 49.12078 | 8.08635 | 28699 ft | 404 kts | 230° |
| 2026-05-05 09:26 | 49.10365 | 8.05225 | 29209 ft | 405 kts | 230° |
| 2026-05-05 09:26 | 49.08645 | 8.01813 | 29686 ft | 407 kts | 230° |
| 2026-05-05 09:26 | 49.06913 | 7.98377 | 30132 ft | 409 kts | 230° |
| 2026-05-05 09:26 | 49.05174 | 7.94936 | 30530 ft | 410 kts | 230° |
| 2026-05-05 09:27 | 49.03431 | 7.91492 | 30925 ft | 411 kts | 230° |
| 2026-05-05 09:27 | 49.01684 | 7.88041 | 31297 ft | 412 kts | 229° |
| 2026-05-05 09:27 | 48.99933 | 7.84590 | 31704 ft | 411 kts | 229° |
| 2026-05-05 09:27 | 48.98195 | 7.81162 | 32243 ft | 407 kts | 229° |
| 2026-05-05 09:28 | 48.96475 | 7.77759 | 32796 ft | 403 kts | 229° |
| 2026-05-05 09:28 | 48.94771 | 7.74395 | 33374 ft | 400 kts | 229° |
| 2026-05-05 09:28 | 48.93082 | 7.71067 | 33932 ft | 396 kts | 229° |
| 2026-05-05 09:28 | 48.91402 | 7.67768 | 34373 ft | 393 kts | 229° |
| 2026-05-05 09:29 | 48.89724 | 7.64487 | 34707 ft | 394 kts | 229° |
| 2026-05-05 09:29 | 48.88038 | 7.61199 | 34975 ft | 395 kts | 229° |
| 2026-05-05 09:29 | 48.86349 | 7.57905 | 35243 ft | 396 kts | 229° |
| 2026-05-05 09:29 | 48.84654 | 7.54600 | 35505 ft | 397 kts | 229° |
| 2026-05-05 09:30 | 48.82951 | 7.51280 | 35751 ft | 399 kts | 229° |
| 2026-05-05 09:30 | 48.81240 | 7.47953 | 35970 ft | 401 kts | 229° |
| 2026-05-05 09:30 | 48.79596 | 7.44538 | 36212 ft | 404 kts | 235° |
| 2026-05-05 09:30 | 48.78255 | 7.40768 | 36448 ft | 408 kts | 240° |
| 2026-05-05 09:31 | 48.76971 | 7.36927 | 36649 ft | 409 kts | 240° |
| 2026-05-05 09:31 | 48.75682 | 7.33071 | 36857 ft | 411 kts | 240° |
| 2026-05-05 09:31 | 48.74389 | 7.29225 | 36888 ft | 409 kts | 240° |
| 2026-05-05 09:32 | 48.71804 | 7.21574 | 36891 ft | 407 kts | 240° |
| 2026-05-05 09:32 | 48.69222 | 7.13945 | 36889 ft | 407 kts | 240° |
| 2026-05-05 09:33 | 48.66630 | 7.06325 | 36889 ft | 407 kts | 239° |
| 2026-05-05 09:33 | 48.64030 | 6.98711 | 36892 ft | 407 kts | 239° |
| 2026-05-05 09:34 | 48.61430 | 6.91102 | 36905 ft | 408 kts | 239° |
| 2026-05-05 09:34 | 48.58816 | 6.83495 | 36907 ft | 408 kts | 239° |
| 2026-05-05 09:35 | 48.56194 | 6.75887 | 36891 ft | 409 kts | 239° |
| 2026-05-05 09:35 | 48.52278 | 6.64525 | 36891 ft | 409 kts | 239° |
| 2026-05-05 09:36 | 48.49643 | 6.56926 | 36890 ft | 409 kts | 239° |
| 2026-05-05 09:36 | 48.47002 | 6.49332 | 36891 ft | 409 kts | 239° |
| 2026-05-05 09:37 | 48.44364 | 6.41729 | 36900 ft | 410 kts | 239° |
| 2026-05-05 09:37 | 48.41714 | 6.34140 | 36894 ft | 410 kts | 239° |
| 2026-05-05 09:38 | 48.39049 | 6.26548 | 36902 ft | 410 kts | 239° |
| 2026-05-05 09:38 | 48.36378 | 6.18957 | 36903 ft | 411 kts | 239° |
| 2026-05-05 09:39 | 48.33706 | 6.11365 | 36907 ft | 411 kts | 239° |
| 2026-05-05 09:39 | 48.30821 | 6.03989 | 36897 ft | 407 kts | 230° |
| 2026-05-05 09:40 | 48.27398 | 5.97210 | 36913 ft | 408 kts | 231° |
| 2026-05-05 09:40 | 48.23981 | 5.90405 | 36890 ft | 409 kts | 231° |
| 2026-05-05 09:41 | 48.20558 | 5.83593 | 36890 ft | 409 kts | 231° |
| 2026-05-05 09:41 | 48.17120 | 5.76782 | 36885 ft | 410 kts | 230° |
| 2026-05-05 09:42 | 48.13678 | 5.69987 | 36884 ft | 410 kts | 230° |
| 2026-05-05 09:42 | 48.10224 | 5.63198 | 36896 ft | 410 kts | 230° |
| 2026-05-05 09:43 | 48.06785 | 5.56455 | 36884 ft | 411 kts | 230° |
| 2026-05-05 09:43 | 48.03302 | 5.49626 | 36883 ft | 410 kts | 230° |
| 2026-05-05 09:44 | 47.99860 | 5.42897 | 36867 ft | 411 kts | 230° |
| 2026-05-05 09:44 | 47.96383 | 5.36113 | 36865 ft | 411 kts | 230° |
| 2026-05-05 09:45 | 47.92899 | 5.29336 | 36867 ft | 412 kts | 230° |
| 2026-05-05 09:45 | 47.89177 | 5.22881 | 36864 ft | 410 kts | 221° |
| 2026-05-05 09:46 | 47.85003 | 5.17097 | 36869 ft | 410 kts | 221° |
| 2026-05-05 09:46 | 47.80819 | 5.11321 | 36872 ft | 410 kts | 221° |
| 2026-05-05 09:47 | 47.76632 | 5.05554 | 36881 ft | 410 kts | 221° |
| 2026-05-05 09:47 | 47.72444 | 4.99778 | 36882 ft | 411 kts | 221° |
| 2026-05-05 09:48 | 47.68255 | 4.94000 | 36875 ft | 411 kts | 221° |
| 2026-05-05 09:48 | 47.64053 | 4.88227 | 36880 ft | 412 kts | 221° |
| 2026-05-05 09:49 | 47.59844 | 4.82474 | 36877 ft | 411 kts | 221° |
| 2026-05-05 09:49 | 47.55643 | 4.76742 | 36875 ft | 411 kts | 221° |
| 2026-05-05 09:50 | 47.51469 | 4.71041 | 36877 ft | 411 kts | 221° |
| 2026-05-05 09:50 | 47.47263 | 4.65324 | 36873 ft | 411 kts | 221° |
| 2026-05-05 09:51 | 47.43062 | 4.59615 | 36876 ft | 410 kts | 221° |
| 2026-05-05 09:51 | 47.38861 | 4.53913 | 36893 ft | 410 kts | 221° |
| 2026-05-05 09:52 | 47.34652 | 4.48214 | 36878 ft | 410 kts | 221° |
| 2026-05-05 09:52 | 47.30446 | 4.42530 | 36872 ft | 410 kts | 221° |
| 2026-05-05 09:53 | 47.26232 | 4.36855 | 36881 ft | 410 kts | 221° |
| 2026-05-05 09:53 | 47.22027 | 4.31197 | 36886 ft | 409 kts | 221° |
| 2026-05-05 09:54 | 47.17818 | 4.25553 | 36880 ft | 409 kts | 220° |
| 2026-05-05 09:54 | 47.13608 | 4.19930 | 36884 ft | 409 kts | 220° |
| 2026-05-05 09:55 | 47.09403 | 4.14316 | 36880 ft | 409 kts | 220° |
| 2026-05-05 09:55 | 47.05192 | 4.08703 | 36881 ft | 409 kts | 220° |
| 2026-05-05 09:56 | 47.00968 | 4.03088 | 36873 ft | 410 kts | 220° |
| 2026-05-05 09:56 | 46.96743 | 3.97477 | 36875 ft | 411 kts | 220° |
| 2026-05-05 09:57 | 46.92499 | 3.91865 | 36873 ft | 411 kts | 220° |
| 2026-05-05 09:57 | 46.88252 | 3.86269 | 36879 ft | 411 kts | 220° |
| 2026-05-05 09:58 | 46.83999 | 3.80660 | 36879 ft | 412 kts | 220° |
| 2026-05-05 09:58 | 46.79746 | 3.75057 | 36880 ft | 412 kts | 220° |
| 2026-05-05 09:59 | 46.75489 | 3.69469 | 36871 ft | 412 kts | 220° |
| 2026-05-05 09:59 | 46.71360 | 3.63680 | 36874 ft | 414 kts | 229° |
| 2026-05-05 10:00 | 46.68481 | 3.56470 | 36871 ft | 418 kts | 242° |
| 2026-05-05 10:00 | 46.65991 | 3.48805 | 36884 ft | 419 kts | 242° |
| 2026-05-05 10:01 | 46.63488 | 3.41156 | 36882 ft | 418 kts | 242° |
| 2026-05-05 10:01 | 46.60987 | 3.33520 | 36879 ft | 418 kts | 242° |
| 2026-05-05 10:02 | 46.58479 | 3.25903 | 36878 ft | 418 kts | 242° |
| 2026-05-05 10:02 | 46.55958 | 3.18283 | 36891 ft | 418 kts | 242° |
| 2026-05-05 10:03 | 46.53437 | 3.10680 | 36878 ft | 418 kts | 242° |
| 2026-05-05 10:03 | 46.50914 | 3.03075 | 36873 ft | 418 kts | 242° |
| 2026-05-05 10:04 | 46.48385 | 2.95476 | 36871 ft | 418 kts | 242° |
| 2026-05-05 10:04 | 46.45842 | 2.87886 | 36875 ft | 418 kts | 241° |
| 2026-05-05 10:05 | 46.43291 | 2.80299 | 36897 ft | 419 kts | 242° |
| 2026-05-05 10:05 | 46.40740 | 2.72712 | 36891 ft | 419 kts | 242° |
| 2026-05-05 10:06 | 46.38177 | 2.65130 | 36890 ft | 419 kts | 242° |
| 2026-05-05 10:06 | 46.35615 | 2.57548 | 36890 ft | 419 kts | 242° |
| 2026-05-05 10:07 | 46.33051 | 2.49970 | 36893 ft | 419 kts | 241° |
| 2026-05-05 10:07 | 46.30472 | 2.42403 | 36893 ft | 419 kts | 241° |
| 2026-05-05 10:08 | 46.28327 | 2.36115 | 36913 ft | 420 kts | 241° |
| 2026-05-05 10:08 | 46.25740 | 2.28551 | 36905 ft | 420 kts | 241° |
| 2026-05-05 10:09 | 46.23144 | 2.20989 | 36900 ft | 420 kts | 241° |
| 2026-05-05 10:09 | 46.20545 | 2.13426 | 36901 ft | 420 kts | 241° |
| 2026-05-05 10:10 | 46.17940 | 2.05867 | 36905 ft | 421 kts | 241° |
| 2026-05-05 10:10 | 46.15326 | 1.98319 | 36924 ft | 421 kts | 241° |
| 2026-05-05 10:11 | 46.12709 | 1.90775 | 36915 ft | 421 kts | 241° |
| 2026-05-05 10:11 | 46.10084 | 1.83228 | 36918 ft | 421 kts | 241° |
| 2026-05-05 10:12 | 46.07458 | 1.75688 | 36922 ft | 421 kts | 241° |
| 2026-05-05 10:12 | 46.04832 | 1.68145 | 36917 ft | 421 kts | 241° |
| 2026-05-05 10:13 | 46.02192 | 1.60616 | 36920 ft | 421 kts | 241° |
| 2026-05-05 10:13 | 45.99547 | 1.53100 | 36941 ft | 422 kts | 241° |
| 2026-05-05 10:14 | 45.96896 | 1.45570 | 36936 ft | 422 kts | 241° |
| 2026-05-05 10:14 | 45.95568 | 1.41805 | 36766 ft | 423 kts | 241° |
| 2026-05-05 10:14 | 45.94238 | 1.38048 | 36512 ft | 421 kts | 241° |
| 2026-05-05 10:15 | 45.92911 | 1.34302 | 36256 ft | 421 kts | 241° |
| 2026-05-05 10:15 | 45.91583 | 1.30552 | 36022 ft | 421 kts | 241° |
| 2026-05-05 10:15 | 45.90256 | 1.26809 | 35776 ft | 421 kts | 241° |
| 2026-05-05 10:15 | 45.88931 | 1.23082 | 35423 ft | 417 kts | 241° |
| 2026-05-05 10:16 | 45.87618 | 1.19391 | 34938 ft | 414 kts | 241° |
| 2026-05-05 10:16 | 45.86310 | 1.15727 | 34458 ft | 412 kts | 241° |
| 2026-05-05 10:16 | 45.85004 | 1.12083 | 33967 ft | 410 kts | 240° |
| 2026-05-05 10:16 | 45.83704 | 1.08454 | 33425 ft | 407 kts | 240° |
| 2026-05-05 10:17 | 45.82419 | 1.04860 | 32961 ft | 403 kts | 240° |
| 2026-05-05 10:17 | 45.81026 | 1.01412 | 32463 ft | 398 kts | 232° |
| 2026-05-05 10:17 | 45.79403 | 0.98222 | 31971 ft | 395 kts | 231° |
| 2026-05-05 10:17 | 45.77786 | 0.95057 | 31491 ft | 392 kts | 231° |
| 2026-05-05 10:18 | 45.76182 | 0.91910 | 31032 ft | 389 kts | 232° |
| 2026-05-05 10:18 | 45.74596 | 0.88789 | 30565 ft | 387 kts | 232° |
| 2026-05-05 10:18 | 45.73017 | 0.85680 | 30109 ft | 385 kts | 231° |
| 2026-05-05 10:18 | 45.71445 | 0.82588 | 29608 ft | 383 kts | 231° |
| 2026-05-05 10:19 | 45.69886 | 0.79533 | 29173 ft | 378 kts | 231° |
| 2026-05-05 10:19 | 45.68338 | 0.76512 | 28757 ft | 375 kts | 231° |
| 2026-05-05 10:19 | 45.66801 | 0.73519 | 28337 ft | 372 kts | 231° |
| 2026-05-05 10:19 | 45.65300 | 0.70589 | 27932 ft | 369 kts | 231° |
| 2026-05-05 10:20 | 45.63791 | 0.67648 | 27518 ft | 365 kts | 231° |
| 2026-05-05 10:20 | 45.62295 | 0.64734 | 27100 ft | 362 kts | 231° |
| 2026-05-05 10:20 | 45.60810 | 0.61847 | 26695 ft | 359 kts | 231° |
| 2026-05-05 10:20 | 45.59336 | 0.58982 | 26264 ft | 357 kts | 231° |
| 2026-05-05 10:21 | 45.57873 | 0.56138 | 25840 ft | 354 kts | 231° |
| 2026-05-05 10:21 | 45.56419 | 0.53313 | 25411 ft | 352 kts | 231° |
| 2026-05-05 10:21 | 45.54972 | 0.50504 | 24973 ft | 350 kts | 231° |
| 2026-05-05 10:21 | 45.53532 | 0.47714 | 24530 ft | 348 kts | 231° |
| 2026-05-05 10:22 | 45.52099 | 0.44942 | 24077 ft | 347 kts | 231° |
| 2026-05-05 10:22 | 45.50673 | 0.42182 | 23634 ft | 345 kts | 231° |
| 2026-05-05 10:22 | 45.49249 | 0.39434 | 23140 ft | 344 kts | 231° |
| 2026-05-05 10:22 | 45.47831 | 0.36703 | 22685 ft | 342 kts | 231° |
| 2026-05-05 10:23 | 45.46423 | 0.33993 | 22248 ft | 339 kts | 231° |
| 2026-05-05 10:23 | 45.45027 | 0.31305 | 21817 ft | 336 kts | 231° |
| 2026-05-05 10:23 | 45.43639 | 0.28632 | 21394 ft | 334 kts | 232° |
| 2026-05-05 10:23 | 45.42263 | 0.25982 | 20974 ft | 332 kts | 231° |
| 2026-05-05 10:24 | 45.40892 | 0.23348 | 20559 ft | 330 kts | 231° |
| 2026-05-05 10:24 | 45.39532 | 0.20735 | 20146 ft | 328 kts | 231° |
| 2026-05-05 10:24 | 45.38172 | 0.18136 | 19740 ft | 326 kts | 231° |
| 2026-05-05 10:24 | 45.36820 | 0.15555 | 19333 ft | 325 kts | 232° |
| 2026-05-05 10:25 | 45.35472 | 0.12981 | 18927 ft | 324 kts | 231° |
| 2026-05-05 10:25 | 45.34128 | 0.10397 | 18419 ft | 326 kts | 232° |
| 2026-05-05 10:25 | 45.32806 | 0.07825 | 17884 ft | 328 kts | 232° |
| 2026-05-05 10:25 | 45.31462 | 0.05194 | 17366 ft | 329 kts | 232° |
| 2026-05-05 10:26 | 45.30119 | 0.02567 | 16859 ft | 329 kts | 232° |
| 2026-05-05 10:26 | 45.28771 | -0.00060 | 16352 ft | 329 kts | 232° |
| 2026-05-05 10:26 | 45.27420 | -0.02692 | 15840 ft | 330 kts | 232° |
| 2026-05-05 10:26 | 45.26065 | -0.05329 | 15388 ft | 330 kts | 232° |
| 2026-05-05 10:27 | 45.24719 | -0.07946 | 14898 ft | 330 kts | 232° |
| 2026-05-05 10:27 | 45.23378 | -0.10545 | 14558 ft | 322 kts | 232° |
| 2026-05-05 10:27 | 45.22055 | -0.13104 | 14004 ft | 320 kts | 232° |
| 2026-05-05 10:27 | 45.20741 | -0.15643 | 13421 ft | 319 kts | 232° |
| 2026-05-05 10:28 | 45.19437 | -0.18164 | 12852 ft | 315 kts | 232° |
| 2026-05-05 10:28 | 45.18150 | -0.20653 | 12345 ft | 310 kts | 232° |
| 2026-05-05 10:28 | 45.16872 | -0.23086 | 11830 ft | 305 kts | 229° |
| 2026-05-05 10:28 | 45.15420 | -0.25244 | 11357 ft | 300 kts | 224° |
| 2026-05-05 10:29 | 45.13967 | -0.27333 | 10890 ft | 296 kts | 224° |
| 2026-05-05 10:29 | 45.12543 | -0.29377 | 10661 ft | 285 kts | 224° |
| 2026-05-05 10:29 | 45.11177 | -0.31344 | 10535 ft | 275 kts | 224° |
| 2026-05-05 10:29 | 45.09741 | -0.33017 | 10406 ft | 261 kts | 209° |
| 2026-05-05 10:30 | 45.08092 | -0.33904 | 10225 ft | 249 kts | 191° |
| 2026-05-05 10:30 | 45.06375 | -0.34197 | 9812 ft | 249 kts | 186° |
| 2026-05-05 10:30 | 45.04666 | -0.34438 | 9447 ft | 245 kts | 186° |
| 2026-05-05 10:30 | 45.02982 | -0.34673 | 9069 ft | 243 kts | 186° |
| 2026-05-05 10:31 | 45.01295 | -0.34909 | 8701 ft | 243 kts | 187° |
| 2026-05-05 10:31 | 44.99627 | -0.35143 | 8392 ft | 240 kts | 187° |
| 2026-05-05 10:31 | 44.97968 | -0.35379 | 7971 ft | 239 kts | 187° |
| 2026-05-05 10:31 | 44.96324 | -0.35613 | 7601 ft | 237 kts | 187° |
| 2026-05-05 10:32 | 44.94694 | -0.35843 | 7249 ft | 234 kts | 187° |
| 2026-05-05 10:32 | 44.93067 | -0.36071 | 6894 ft | 237 kts | 188° |
| 2026-05-05 10:32 | 44.91436 | -0.36301 | 6520 ft | 239 kts | 187° |
| 2026-05-05 10:32 | 44.89798 | -0.36533 | 6175 ft | 235 kts | 187° |
| 2026-05-05 10:33 | 44.88179 | -0.36763 | 5799 ft | 233 kts | 187° |
| 2026-05-05 10:33 | 44.86569 | -0.36989 | 5440 ft | 233 kts | 188° |
| 2026-05-05 10:33 | 44.84975 | -0.37283 | 5136 ft | 230 kts | 196° |
| 2026-05-05 10:33 | 44.83448 | -0.37925 | 4792 ft | 227 kts | 199° |
| 2026-05-05 10:34 | 44.81934 | -0.38571 | 4359 ft | 227 kts | 198° |
| 2026-05-05 10:34 | 44.80431 | -0.39205 | 3983 ft | 224 kts | 199° |
| 2026-05-05 10:34 | 44.78976 | -0.39818 | 3828 ft | 210 kts | 199° |
| 2026-05-05 10:34 | 44.77711 | -0.40629 | 3786 ft | 192 kts | 222° |
| 2026-05-05 10:35 | 44.77017 | -0.42101 | 3686 ft | 177 kts | 252° |
| 2026-05-05 10:35 | 44.76999 | -0.43810 | 3370 ft | 178 kts | 283° |
| 2026-05-05 10:35 | 44.77352 | -0.45470 | 3079 ft | 176 kts | 285° |
| 2026-05-05 10:35 | 44.77691 | -0.47051 | 3006 ft | 161 kts | 285° |
| 2026-05-05 10:36 | 44.78002 | -0.48512 | 2998 ft | 157 kts | 285° |
| 2026-05-05 10:36 | 44.78317 | -0.49992 | 2993 ft | 158 kts | 285° |
| 2026-05-05 10:36 | 44.78630 | -0.51470 | 2861 ft | 157 kts | 284° |
| 2026-05-05 10:36 | 44.78939 | -0.52924 | 2680 ft | 155 kts | 284° |
| 2026-05-05 10:37 | 44.79246 | -0.54374 | 2480 ft | 155 kts | 284° |
| 2026-05-05 10:37 | 44.79555 | -0.55833 | 2268 ft | 155 kts | 284° |
| 2026-05-05 10:37 | 44.79862 | -0.57285 | 2063 ft | 153 kts | 284° |
| 2026-05-05 10:37 | 44.80151 | -0.58647 | 1870 ft | 136 kts | 285° |
| 2026-05-05 10:38 | 44.80412 | -0.59880 | 1688 ft | 128 kts | 285° |
| 2026-05-05 10:38 | 44.80661 | -0.61061 | 1516 ft | 124 kts | 285° |
| 2026-05-05 10:38 | 44.80903 | -0.62212 | 1351 ft | 122 kts | 285° |
| 2026-05-05 10:38 | 44.81148 | -0.63378 | 1175 ft | 126 kts | 285° |
| 2026-05-05 10:39 | 44.81392 | -0.64553 | 987 ft | 124 kts | 284° |
| 2026-05-05 10:39 | 44.81635 | -0.65717 | 790 ft | 126 kts | 285° |
| 2026-05-05 10:39 | 44.81886 | -0.66892 | 656 ft | 129 kts | 285° |
| 2026-05-05 10:39 | 44.82136 | -0.68098 | 502 ft | 127 kts | 285° |
| 2026-05-05 10:40 | 44.82392 | -0.69291 | 309 ft | 126 kts | 285° |
| 2026-05-05 10:40 | 44.82639 | -0.70453 | 175 ft | 117 kts | 287° |
| 2026-05-05 10:40 | 44.82814 | -0.71278 | 169 ft | 47 kts | 285° |
| 2026-05-05 10:40 | 44.82875 | -0.71575 | 172 ft | 28 kts | 286° |
| 2026-05-05 10:41 | 44.82928 | -0.71825 | 172 ft | 26 kts | 285° |
| 2026-05-05 10:41 | 44.82973 | -0.72044 | 171 ft | 19 kts | 287° |
| 2026-05-05 10:41 | 44.83010 | -0.72136 | 170 ft | 10 kts | 337° |
| 2026-05-05 10:41 | 44.83084 | -0.72116 | 168 ft | 12 kts | 17° |
| 2026-05-05 10:42 | 44.83149 | -0.71933 | 168 ft | 13 kts | 107° |
| 2026-05-05 10:42 | 44.83120 | -0.71806 | 168 ft | 14 kts | 105° |
| 2026-05-05 10:42 | 44.83095 | -0.71673 | 168 ft | 14 kts | 106° |
| 2026-05-05 10:43 | 44.83065 | -0.71535 | 168 ft | 15 kts | 106° |
| 2026-05-05 10:43 | 44.83035 | -0.71391 | 168 ft | 16 kts | 107° |
| 2026-05-05 10:43 | 44.83001 | -0.71235 | 168 ft | 17 kts | 105° |
| 2026-05-05 10:43 | 44.82970 | -0.71080 | 169 ft | 17 kts | 107° |
| 2026-05-05 10:44 | 44.82938 | -0.70928 | 170 ft | 12 kts | 106° |
| 2026-05-05 10:44 | 44.82938 | -0.70831 | 170 ft | 10 kts | 59° |
| 2026-05-05 10:44 | 44.82991 | -0.70777 | 170 ft | 10 kts | 29° |
| 2026-05-05 10:44 | 44.83045 | -0.70709 | 169 ft | 11 kts | 45° |
| 2026-05-05 10:45 | 44.83102 | -0.70626 | 168 ft | 13 kts | 44° |
| 2026-05-05 10:45 | 44.83163 | -0.70543 | 167 ft | 12 kts | 43° |
| 2026-05-05 10:45 | 44.83211 | -0.70477 | 167 ft | 4 kts | 45° |
| 2026-05-05 10:45 | 44.83219 | -0.70441 | 167 ft | 4 kts | 121° |
| 2026-05-05 10:46 | 44.83198 | -0.70434 | 167 ft | 2 kts | 165° |
| 2026-05-05 10:46 | 44.83186 | -0.70429 | 167 ft | 4 kts | 162° |
| 2026-05-05 10:46 | 44.83166 | -0.70419 | 167 ft | 0 kts | 162° |